BBC Elbe — V2GP2 — position and weather

sailwx.info

Track history (hours):
 
Tides and Currents Weather Stations Pressure Air Temp Water Temp Dewpoint Dewpoint Depression Visibility Wind Speed Wind Dir Waves Ship Positions

BBC Elbe

Last reported at 2018-Apr-21 01:28 UTC. Time now 2018-May-20 17:42 UTC.
Position N 36°19' E 015°03'.
Warning: this ship's position is 29 days out of date.

Length 143 m; draft 7.5 m.

Type: Ship. MMSI: 304034000.

Date/timePositionNaut miles runAvg speedWind from/ knotsBaromVisibWave heightAir tempDewpointWater temp
2018-Apr-21 01:28N 36°19' E 015°03'714.9
2018-Apr-21 01:00N 36°21' E 014°55'714.6
2018-Apr-21 00:30N 36°22' E 014°46'714.8
2018-Apr-21 00:00N 36°25' E 014°37'715.0
2018-Apr-20 23:30N 36°27' E 014°28'714.7
2018-Apr-20 23:00N 36°29' E 014°20'815.1
2018-Apr-20 22:30N 36°32' E 014°11'713.8
2018-Apr-20 22:00N 36°34' E 014°03'714.5
2018-Apr-20 21:30N 36°36' E 013°54'914.8
2018-Apr-20 20:51N 36°38' E 013°43'62014.0
2018-Apr-19 00:41N 36°48' E 000°50'1113.7
2018-Apr-18 23:51N 36°44' E 000°36'713.2
2018-Apr-18 23:22N 36°42' E 000°28'713.4
2018-Apr-18 22:49N 36°41' E 000°20'413.2
2018-Apr-18 22:30N 36°40' E 000°14'26514.3
2018-Apr-18 04:01N 35°60' W 005°11'014.3
2018-Apr-18 04:00N 35°60' W 005°11'714.3
2018-Apr-18 03:30N 35°58' W 005°20'714.0
2018-Apr-18 03:00N 35°57' W 005°28'  
Track history (hours):
 
Tides and Currents Weather Stations Pressure Air Temp Water Temp Dewpoint Dewpoint Depression Visibility Wind Speed Wind Dir Waves Ship Positions

BBC Elbe

Last reported at 2018-Apr-21 01:28 UTC. Time now 2018-May-20 17:42 UTC.
Position N 36°19' E 015°03'.
Warning: this ship's position is 29 days out of date.

Length 143 m; draft 7.5 m.

Type: Ship. MMSI: 304034000.

Date/timePositionNaut miles runAvg speedWind from/ knotsBaromVisibWave heightAir tempDewpointWater temp
2018-Apr-21 01:28N 36°19' E 015°03'714.9
2018-Apr-21 01:00N 36°21' E 014°55'714.6
2018-Apr-21 00:30N 36°22' E 014°46'714.8
2018-Apr-21 00:00N 36°25' E 014°37'715.0
2018-Apr-20 23:30N 36°27' E 014°28'714.7
2018-Apr-20 23:00N 36°29' E 014°20'815.1
2018-Apr-20 22:30N 36°32' E 014°11'713.8
2018-Apr-20 22:00N 36°34' E 014°03'714.5
2018-Apr-20 21:30N 36°36' E 013°54'914.8
2018-Apr-20 20:51N 36°38' E 013°43'62014.0
2018-Apr-19 00:41N 36°48' E 000°50'1113.7
2018-Apr-18 23:51N 36°44' E 000°36'713.2
2018-Apr-18 23:22N 36°42' E 000°28'713.4
2018-Apr-18 22:49N 36°41' E 000°20'413.2
2018-Apr-18 22:30N 36°40' E 000°14'26514.3
2018-Apr-18 04:01N 35°60' W 005°11'014.3
2018-Apr-18 04:00N 35°60' W 005°11'714.3
2018-Apr-18 03:30N 35°58' W 005°20'714.0
2018-Apr-18 03:00N 35°57' W 005°28'  

Dump ship's entire track history